AAL28 KABQ-KLAX
Flight info
| Callsign | AAL28 |
|---|---|
| Flight time | 1h 43m |
| Altitude | 40000 |
| Route | RDRNR3 ZUN J6 DRK HIPPI GABBL HLYWD1 |
| Aircraft | MD11/H-SDE1E2E3FGHIJ2J3J4J5M1RWXY/LB1D1 |
Departure
| Time | 2026-05-04 00:26 |
|---|---|
| Airport | Albuquerque International Sunport (KABQ) |
Arrival
| Time | 2026-05-04 02:09 |
|---|---|
| Airport | Los Angeles International Airport (KLAX) |
| Time | Latitude | Longitude | Altitude | Speed | Heading |
|---|---|---|---|---|---|
| 2026-05-03 23:46 | 35.04752 | -106.61894 | 5338 ft | 0 kts | 110° |
| 2026-05-04 00:17 | 35.04755 | -106.61902 | 5352 ft | 4 kts | 110° |
| 2026-05-04 00:17 | 35.04762 | -106.61933 | 5338 ft | 4 kts | 105° |
| 2026-05-04 00:17 | 35.04770 | -106.61957 | 5338 ft | 4 kts | 168° |
| 2026-05-04 00:17 | 35.04778 | -106.61958 | 5336 ft | 0 kts | 180° |
| 2026-05-04 00:21 | 35.04772 | -106.61958 | 5336 ft | 2 kts | 180° |
| 2026-05-04 00:21 | 35.04737 | -106.61958 | 5338 ft | 7 kts | 180° |
| 2026-05-04 00:22 | 35.04699 | -106.61959 | 5336 ft | 5 kts | 180° |
| 2026-05-04 00:22 | 35.04672 | -106.61959 | 5337 ft | 3 kts | 180° |
| 2026-05-04 00:22 | 35.04629 | -106.61960 | 5338 ft | 10 kts | 180° |
| 2026-05-04 00:22 | 35.04569 | -106.61984 | 5335 ft | 7 kts | 229° |
| 2026-05-04 00:23 | 35.04559 | -106.62041 | 5336 ft | 8 kts | 267° |
| 2026-05-04 00:23 | 35.04556 | -106.62103 | 5334 ft | 6 kts | 258° |
| 2026-05-04 00:23 | 35.04546 | -106.62125 | 5338 ft | 1 kts | 232° |
| 2026-05-04 00:24 | 35.04544 | -106.62127 | 5337 ft | 1 kts | 228° |
| 2026-05-04 00:24 | 35.04521 | -106.62139 | 5341 ft | 6 kts | 194° |
| 2026-05-04 00:24 | 35.04463 | -106.62141 | 5340 ft | 7 kts | 176° |
| 2026-05-04 00:25 | 35.04439 | -106.62123 | 5339 ft | 3 kts | 133° |
| 2026-05-04 00:25 | 35.04435 | -106.62100 | 5340 ft | 3 kts | 91° |
| 2026-05-04 00:25 | 35.04434 | -106.62059 | 5339 ft | 13 kts | 90° |
| 2026-05-04 00:25 | 35.04432 | -106.61608 | 5336 ft | 98 kts | 90° |
| 2026-05-04 00:26 | 35.04425 | -106.60437 | 5340 ft | 173 kts | 90° |
| 2026-05-04 00:26 | 35.04437 | -106.58884 | 6028 ft | 185 kts | 91° |
| 2026-05-04 00:26 | 35.04471 | -106.57291 | 6972 ft | 186 kts | 95° |
| 2026-05-04 00:26 | 35.04441 | -106.55695 | 7946 ft | 191 kts | 95° |
| 2026-05-04 00:27 | 35.04783 | -106.54104 | 8828 ft | 200 kts | 70° |
| 2026-05-04 00:27 | 35.05365 | -106.52383 | 9126 ft | 240 kts | 61° |
| 2026-05-04 00:27 | 35.06563 | -106.50826 | 9287 ft | 267 kts | 29° |
| 2026-05-04 00:27 | 35.08369 | -106.50160 | 9434 ft | 280 kts | 357° |
| 2026-05-04 00:28 | 35.10254 | -106.50772 | 9662 ft | 287 kts | 322° |
| 2026-05-04 00:28 | 35.11626 | -106.52534 | 10294 ft | 299 kts | 298° |
| 2026-05-04 00:28 | 35.12253 | -106.55073 | 10450 ft | 332 kts | 272° |
| 2026-05-04 00:28 | 35.12069 | -106.57967 | 11050 ft | 347 kts | 259° |
| 2026-05-04 00:29 | 35.11582 | -106.60869 | 12133 ft | 351 kts | 257° |
| 2026-05-04 00:29 | 35.11060 | -106.63808 | 13193 ft | 356 kts | 258° |
| 2026-05-04 00:29 | 35.10560 | -106.66776 | 14238 ft | 359 kts | 259° |
| 2026-05-04 00:29 | 35.10089 | -106.69779 | 15157 ft | 362 kts | 260° |
| 2026-05-04 00:30 | 35.09637 | -106.72828 | 15970 ft | 368 kts | 260° |
| 2026-05-04 00:30 | 35.09341 | -106.75905 | 16726 ft | 373 kts | 269° |
| 2026-05-04 00:30 | 35.09524 | -106.79078 | 17537 ft | 378 kts | 277° |
| 2026-05-04 00:30 | 35.09950 | -106.82268 | 18336 ft | 383 kts | 279° |
| 2026-05-04 00:31 | 35.10460 | -106.85492 | 18847 ft | 389 kts | 280° |
| 2026-05-04 00:31 | 35.10907 | -106.88743 | 19033 ft | 388 kts | 273° |
| 2026-05-04 00:31 | 35.10793 | -106.92016 | 19379 ft | 387 kts | 262° |
| 2026-05-04 00:31 | 35.10278 | -106.95245 | 19726 ft | 388 kts | 257° |
| 2026-05-04 00:32 | 35.09622 | -106.98444 | 19865 ft | 389 kts | 256° |
| 2026-05-04 00:32 | 35.08931 | -107.01637 | 19894 ft | 389 kts | 256° |
| 2026-05-04 00:32 | 35.08245 | -107.04834 | 20282 ft | 388 kts | 256° |
| 2026-05-04 00:32 | 35.07576 | -107.08026 | 21100 ft | 389 kts | 257° |
| 2026-05-04 00:33 | 35.06916 | -107.11232 | 21881 ft | 390 kts | 257° |
| 2026-05-04 00:33 | 35.05611 | -107.17700 | 23446 ft | 395 kts | 257° |
| 2026-05-04 00:33 | 35.04957 | -107.20960 | 24130 ft | 396 kts | 257° |
| 2026-05-04 00:34 | 35.04303 | -107.24225 | 24912 ft | 397 kts | 258° |
| 2026-05-04 00:34 | 35.03765 | -107.27527 | 25659 ft | 396 kts | 263° |
| 2026-05-04 00:34 | 35.03509 | -107.30877 | 26422 ft | 397 kts | 267° |
| 2026-05-04 00:34 | 35.03386 | -107.34240 | 27175 ft | 398 kts | 269° |
| 2026-05-04 00:35 | 35.03307 | -107.37619 | 27942 ft | 399 kts | 269° |
| 2026-05-04 00:35 | 35.03232 | -107.41004 | 28653 ft | 400 kts | 269° |
| 2026-05-04 00:35 | 35.03149 | -107.44411 | 29319 ft | 403 kts | 269° |
| 2026-05-04 00:35 | 35.03057 | -107.47836 | 29989 ft | 405 kts | 269° |
| 2026-05-04 00:36 | 35.02956 | -107.51270 | 30514 ft | 406 kts | 269° |
| 2026-05-04 00:36 | 35.02850 | -107.54717 | 31061 ft | 406 kts | 269° |
| 2026-05-04 00:36 | 35.02741 | -107.58154 | 31671 ft | 405 kts | 269° |
| 2026-05-04 00:36 | 35.02631 | -107.61574 | 32262 ft | 403 kts | 269° |
| 2026-05-04 00:37 | 35.02519 | -107.64981 | 32863 ft | 401 kts | 269° |
| 2026-05-04 00:37 | 35.02408 | -107.68365 | 33467 ft | 398 kts | 269° |
| 2026-05-04 00:37 | 35.02296 | -107.71729 | 34031 ft | 396 kts | 269° |
| 2026-05-04 00:37 | 35.02184 | -107.75073 | 34500 ft | 394 kts | 269° |
| 2026-05-04 00:38 | 35.02110 | -107.77280 | 34785 ft | 393 kts | 269° |
| 2026-05-04 00:38 | 35.01960 | -107.81683 | 35366 ft | 391 kts | 268° |
| 2026-05-04 00:38 | 35.01847 | -107.84985 | 35837 ft | 389 kts | 268° |
| 2026-05-04 00:38 | 35.01733 | -107.88272 | 36278 ft | 387 kts | 268° |
| 2026-05-04 00:39 | 35.01620 | -107.91541 | 36664 ft | 385 kts | 268° |
| 2026-05-04 00:39 | 35.01506 | -107.94798 | 37053 ft | 384 kts | 268° |
| 2026-05-04 00:39 | 35.01391 | -107.98041 | 37486 ft | 382 kts | 268° |
| 2026-05-04 00:39 | 35.01276 | -108.01269 | 37890 ft | 380 kts | 268° |
| 2026-05-04 00:40 | 35.01237 | -108.02357 | 38043 ft | 379 kts | 268° |
| 2026-05-04 00:40 | 35.01083 | -108.06635 | 38604 ft | 376 kts | 268° |
| 2026-05-04 00:40 | 35.00967 | -108.09821 | 38882 ft | 375 kts | 268° |
| 2026-05-04 00:40 | 35.00851 | -108.12998 | 39141 ft | 375 kts | 268° |
| 2026-05-04 00:41 | 35.00734 | -108.16178 | 39372 ft | 375 kts | 268° |
| 2026-05-04 00:41 | 35.00616 | -108.19356 | 39598 ft | 375 kts | 268° |
| 2026-05-04 00:41 | 35.00498 | -108.22534 | 39806 ft | 376 kts | 268° |
| 2026-05-04 00:42 | 35.00252 | -108.28933 | 39879 ft | 379 kts | 268° |
| 2026-05-04 00:42 | 34.99981 | -108.35346 | 39882 ft | 379 kts | 268° |
| 2026-05-04 00:43 | 34.99717 | -108.41762 | 39881 ft | 379 kts | 268° |
| 2026-05-04 00:43 | 34.99461 | -108.48180 | 39872 ft | 379 kts | 268° |
| 2026-05-04 00:44 | 34.99204 | -108.54604 | 39878 ft | 379 kts | 268° |
| 2026-05-04 00:44 | 34.98946 | -108.60986 | 39874 ft | 379 kts | 268° |
| 2026-05-04 00:45 | 34.98683 | -108.67408 | 39862 ft | 379 kts | 268° |
| 2026-05-04 00:45 | 34.98416 | -108.73829 | 39861 ft | 379 kts | 268° |
| 2026-05-04 00:46 | 34.98146 | -108.80255 | 39860 ft | 380 kts | 268° |
| 2026-05-04 00:46 | 34.97872 | -108.86707 | 39849 ft | 382 kts | 268° |
| 2026-05-04 00:47 | 34.97594 | -108.93170 | 39849 ft | 382 kts | 268° |
| 2026-05-04 00:47 | 34.97312 | -108.99631 | 39844 ft | 382 kts | 268° |
| 2026-05-04 00:48 | 34.97026 | -109.06091 | 39894 ft | 382 kts | 268° |
| 2026-05-04 00:48 | 34.96738 | -109.12553 | 39820 ft | 382 kts | 267° |
| 2026-05-04 00:49 | 34.96369 | -109.19021 | 39835 ft | 383 kts | 266° |
| 2026-05-04 00:49 | 34.95930 | -109.25457 | 39832 ft | 384 kts | 266° |
| 2026-05-04 00:50 | 34.95491 | -109.31940 | 39846 ft | 384 kts | 266° |
| 2026-05-04 00:50 | 34.95057 | -109.38419 | 39844 ft | 384 kts | 266° |
| 2026-05-04 00:51 | 34.94622 | -109.44903 | 39834 ft | 384 kts | 266° |
| 2026-05-04 00:51 | 34.94184 | -109.51393 | 39835 ft | 385 kts | 266° |
| 2026-05-04 00:52 | 34.93741 | -109.57906 | 39832 ft | 386 kts | 266° |
| 2026-05-04 00:52 | 34.93295 | -109.64419 | 39831 ft | 386 kts | 266° |
| 2026-05-04 00:53 | 34.92845 | -109.70930 | 39824 ft | 386 kts | 266° |
| 2026-05-04 00:53 | 34.92391 | -109.77441 | 39822 ft | 386 kts | 266° |
| 2026-05-04 00:54 | 34.91934 | -109.83958 | 39811 ft | 387 kts | 266° |
| 2026-05-04 00:54 | 34.91470 | -109.90511 | 39815 ft | 388 kts | 266° |
| 2026-05-04 00:55 | 34.91002 | -109.97069 | 39812 ft | 389 kts | 266° |
| 2026-05-04 00:55 | 34.90531 | -110.03631 | 39813 ft | 389 kts | 266° |
| 2026-05-04 00:56 | 34.90056 | -110.10186 | 39811 ft | 389 kts | 266° |
| 2026-05-04 00:56 | 34.89574 | -110.16735 | 39813 ft | 386 kts | 265° |
| 2026-05-04 00:57 | 34.89074 | -110.23182 | 39812 ft | 384 kts | 265° |
| 2026-05-04 00:57 | 34.88581 | -110.29657 | 39808 ft | 384 kts | 265° |
| 2026-05-04 00:58 | 34.88095 | -110.36127 | 39814 ft | 383 kts | 265° |
| 2026-05-04 00:58 | 34.87609 | -110.42589 | 39815 ft | 383 kts | 265° |
| 2026-05-04 00:59 | 34.87121 | -110.49041 | 39817 ft | 382 kts | 265° |
| 2026-05-04 00:59 | 34.86622 | -110.55484 | 39814 ft | 382 kts | 265° |
| 2026-05-04 01:00 | 34.86123 | -110.61908 | 39822 ft | 381 kts | 265° |
| 2026-05-04 01:00 | 34.85874 | -110.65119 | 39938 ft | 381 kts | 265° |
| 2026-05-04 01:00 | 34.85625 | -110.68330 | 39943 ft | 381 kts | 265° |
| 2026-05-04 01:01 | 34.85125 | -110.74742 | 39947 ft | 380 kts | 265° |
| 2026-05-04 01:01 | 34.84623 | -110.81151 | 39905 ft | 380 kts | 265° |
| 2026-05-04 01:02 | 34.84117 | -110.87574 | 39919 ft | 382 kts | 265° |
| 2026-05-04 01:02 | 34.83606 | -110.94005 | 39901 ft | 382 kts | 265° |
| 2026-05-04 01:03 | 34.83092 | -111.00430 | 39882 ft | 381 kts | 265° |
| 2026-05-04 01:03 | 34.82576 | -111.06849 | 39873 ft | 381 kts | 265° |
| 2026-05-04 01:04 | 34.82057 | -111.13254 | 39867 ft | 380 kts | 265° |
| 2026-05-04 01:04 | 34.81537 | -111.19630 | 39882 ft | 377 kts | 264° |
| 2026-05-04 01:05 | 34.81016 | -111.25972 | 39880 ft | 376 kts | 264° |
| 2026-05-04 01:05 | 34.80493 | -111.32303 | 39883 ft | 376 kts | 264° |
| 2026-05-04 01:06 | 34.79966 | -111.38630 | 39882 ft | 376 kts | 265° |
| 2026-05-04 01:06 | 34.79437 | -111.44957 | 39873 ft | 376 kts | 264° |
| 2026-05-04 01:07 | 34.78906 | -111.51247 | 39882 ft | 379 kts | 264° |
| 2026-05-04 01:07 | 34.78338 | -111.57652 | 39943 ft | 382 kts | 264° |
| 2026-05-04 01:08 | 34.77774 | -111.64074 | 39964 ft | 382 kts | 264° |
| 2026-05-04 01:08 | 34.77218 | -111.70497 | 39988 ft | 382 kts | 264° |
| 2026-05-04 01:09 | 34.76663 | -111.76917 | 39992 ft | 381 kts | 264° |
| 2026-05-04 01:09 | 34.76106 | -111.83320 | 39996 ft | 377 kts | 264° |
| 2026-05-04 01:10 | 34.75554 | -111.89636 | 39968 ft | 375 kts | 264° |
| 2026-05-04 01:10 | 34.75000 | -111.95936 | 39943 ft | 375 kts | 264° |
| 2026-05-04 01:11 | 34.74443 | -112.02229 | 39914 ft | 374 kts | 264° |
| 2026-05-04 01:11 | 34.73882 | -112.08525 | 39881 ft | 375 kts | 264° |
| 2026-05-04 01:12 | 34.73319 | -112.14817 | 39901 ft | 374 kts | 264° |
| 2026-05-04 01:12 | 34.72757 | -112.21057 | 39941 ft | 371 kts | 264° |
| 2026-05-04 01:13 | 34.72193 | -112.27280 | 39965 ft | 370 kts | 264° |
| 2026-05-04 01:13 | 34.71626 | -112.33495 | 39998 ft | 370 kts | 263° |
| 2026-05-04 01:14 | 34.71056 | -112.39711 | 39998 ft | 370 kts | 263° |
| 2026-05-04 01:14 | 34.70483 | -112.45927 | 39978 ft | 370 kts | 263° |
| 2026-05-04 01:15 | 34.69805 | -112.52122 | 39819 ft | 370 kts | 262° |
| 2026-05-04 01:15 | 34.69066 | -112.58309 | 39815 ft | 370 kts | 262° |
| 2026-05-04 01:16 | 34.68333 | -112.64494 | 39808 ft | 370 kts | 262° |
| 2026-05-04 01:16 | 34.67604 | -112.70681 | 39812 ft | 370 kts | 262° |
| 2026-05-04 01:17 | 34.66879 | -112.76831 | 39807 ft | 370 kts | 262° |
| 2026-05-04 01:17 | 34.66149 | -112.82994 | 39809 ft | 367 kts | 262° |
| 2026-05-04 01:18 | 34.65421 | -112.89120 | 39806 ft | 367 kts | 262° |
| 2026-05-04 01:18 | 34.64690 | -112.95248 | 39795 ft | 366 kts | 262° |
| 2026-05-04 01:19 | 34.63955 | -113.01376 | 39795 ft | 367 kts | 262° |
| 2026-05-04 01:19 | 34.63218 | -113.07496 | 39785 ft | 366 kts | 262° |
| 2026-05-04 01:20 | 34.62481 | -113.13595 | 39779 ft | 364 kts | 262° |
| 2026-05-04 01:20 | 34.61740 | -113.19691 | 39784 ft | 361 kts | 262° |
| 2026-05-04 01:21 | 34.61008 | -113.25690 | 39765 ft | 362 kts | 262° |
| 2026-05-04 01:21 | 34.60269 | -113.31728 | 39769 ft | 361 kts | 262° |
| 2026-05-04 01:22 | 34.59526 | -113.37764 | 39755 ft | 362 kts | 262° |
| 2026-05-04 01:22 | 34.58781 | -113.43798 | 39740 ft | 361 kts | 262° |
| 2026-05-04 01:23 | 34.58026 | -113.49794 | 39740 ft | 358 kts | 261° |
| 2026-05-04 01:23 | 34.57260 | -113.55762 | 39741 ft | 358 kts | 261° |
| 2026-05-04 01:24 | 34.56504 | -113.61724 | 39745 ft | 358 kts | 262° |
| 2026-05-04 01:24 | 34.55804 | -113.67697 | 39736 ft | 357 kts | 262° |
| 2026-05-04 01:25 | 34.55146 | -113.73671 | 39735 ft | 357 kts | 262° |
| 2026-05-04 01:25 | 34.54493 | -113.79631 | 39728 ft | 356 kts | 262° |
| 2026-05-04 01:26 | 34.53837 | -113.85570 | 39727 ft | 355 kts | 262° |
| 2026-05-04 01:26 | 34.53184 | -113.91452 | 39722 ft | 354 kts | 262° |
| 2026-05-04 01:27 | 34.52523 | -113.97372 | 39722 ft | 354 kts | 262° |
| 2026-05-04 01:27 | 34.51851 | -114.03281 | 39720 ft | 354 kts | 261° |
| 2026-05-04 01:28 | 34.50788 | -114.09105 | 39717 ft | 353 kts | 257° |
| 2026-05-04 01:28 | 34.49761 | -114.13930 | 39723 ft | 352 kts | 257° |
| 2026-05-04 01:29 | 34.48535 | -114.19677 | 39729 ft | 352 kts | 257° |
| 2026-05-04 01:29 | 34.47326 | -114.25382 | 39734 ft | 352 kts | 257° |
| 2026-05-04 01:30 | 34.46112 | -114.31124 | 39733 ft | 352 kts | 257° |
| 2026-05-04 01:30 | 34.44899 | -114.36858 | 39699 ft | 351 kts | 257° |
| 2026-05-04 01:31 | 34.43682 | -114.42596 | 39696 ft | 352 kts | 257° |
| 2026-05-04 01:31 | 34.42460 | -114.48345 | 39697 ft | 353 kts | 257° |
| 2026-05-04 01:32 | 34.41234 | -114.54096 | 39696 ft | 353 kts | 257° |
| 2026-05-04 01:32 | 34.40005 | -114.59845 | 39697 ft | 353 kts | 257° |
| 2026-05-04 01:33 | 34.38774 | -114.65592 | 39700 ft | 352 kts | 257° |
| 2026-05-04 01:33 | 34.37543 | -114.71328 | 39703 ft | 352 kts | 257° |
| 2026-05-04 01:34 | 34.36308 | -114.77064 | 39711 ft | 352 kts | 257° |
| 2026-05-04 01:34 | 34.35070 | -114.82801 | 39711 ft | 352 kts | 256° |
| 2026-05-04 01:35 | 34.33828 | -114.88540 | 39717 ft | 353 kts | 256° |
| 2026-05-04 01:35 | 34.32573 | -114.94264 | 39714 ft | 352 kts | 256° |
| 2026-05-04 01:36 | 34.31306 | -114.99971 | 39711 ft | 351 kts | 256° |
| 2026-05-04 01:36 | 34.30049 | -115.05664 | 39723 ft | 349 kts | 256° |
| 2026-05-04 01:37 | 34.28804 | -115.11320 | 39721 ft | 348 kts | 256° |
| 2026-05-04 01:37 | 34.27561 | -115.16965 | 39724 ft | 347 kts | 256° |
| 2026-05-04 01:38 | 34.26321 | -115.22613 | 39724 ft | 347 kts | 256° |
| 2026-05-04 01:38 | 34.25116 | -115.28261 | 39732 ft | 347 kts | 256° |
| 2026-05-04 01:39 | 34.23917 | -115.33915 | 39733 ft | 347 kts | 256° |
| 2026-05-04 01:39 | 34.22725 | -115.39534 | 39739 ft | 345 kts | 256° |
| 2026-05-04 01:40 | 34.21532 | -115.45142 | 39738 ft | 344 kts | 256° |
| 2026-05-04 01:40 | 34.20341 | -115.50729 | 39739 ft | 344 kts | 256° |
| 2026-05-04 01:41 | 34.19145 | -115.56324 | 39750 ft | 344 kts | 256° |
| 2026-05-04 01:41 | 34.17946 | -115.61925 | 39749 ft | 344 kts | 256° |
| 2026-05-04 01:42 | 34.16743 | -115.67528 | 39763 ft | 345 kts | 256° |
| 2026-05-04 01:42 | 34.15926 | -115.73186 | 39762 ft | 345 kts | 261° |
| 2026-05-04 01:43 | 34.15377 | -115.78945 | 39600 ft | 346 kts | 262° |
| 2026-05-04 01:43 | 34.15110 | -115.81825 | 39377 ft | 345 kts | 262° |
| 2026-05-04 01:43 | 34.14842 | -115.84696 | 39053 ft | 344 kts | 262° |
| 2026-05-04 01:43 | 34.14572 | -115.87549 | 38583 ft | 340 kts | 262° |
| 2026-05-04 01:44 | 34.14304 | -115.90363 | 38067 ft | 335 kts | 262° |
| 2026-05-04 01:44 | 34.14036 | -115.93152 | 37590 ft | 335 kts | 262° |
| 2026-05-04 01:44 | 34.13765 | -115.95954 | 37124 ft | 338 kts | 262° |
| 2026-05-04 01:44 | 34.13489 | -115.98783 | 36654 ft | 340 kts | 262° |
| 2026-05-04 01:45 | 34.13210 | -116.01620 | 36178 ft | 343 kts | 262° |
| 2026-05-04 01:45 | 34.12927 | -116.04487 | 35686 ft | 345 kts | 262° |
| 2026-05-04 01:45 | 34.12355 | -116.10293 | 34691 ft | 351 kts | 262° |
| 2026-05-04 01:46 | 34.12066 | -116.13235 | 34190 ft | 354 kts | 262° |
| 2026-05-04 01:46 | 34.11774 | -116.16198 | 33653 ft | 357 kts | 263° |
| 2026-05-04 01:46 | 34.11479 | -116.19189 | 33092 ft | 362 kts | 262° |
| 2026-05-04 01:46 | 34.11179 | -116.22234 | 32541 ft | 368 kts | 262° |
| 2026-05-04 01:47 | 34.10872 | -116.25325 | 32052 ft | 373 kts | 262° |
| 2026-05-04 01:47 | 34.10561 | -116.28456 | 31817 ft | 379 kts | 262° |
| 2026-05-04 01:47 | 34.09894 | -116.34807 | 31705 ft | 383 kts | 262° |
| 2026-05-04 01:48 | 34.09208 | -116.41201 | 31584 ft | 385 kts | 261° |
| 2026-05-04 01:48 | 34.08863 | -116.44413 | 31268 ft | 388 kts | 261° |
| 2026-05-04 01:48 | 34.08517 | -116.47640 | 30858 ft | 390 kts | 261° |
| 2026-05-04 01:49 | 34.08166 | -116.50898 | 30605 ft | 394 kts | 261° |
| 2026-05-04 01:49 | 34.07821 | -116.54119 | 30444 ft | 375 kts | 261° |
| 2026-05-04 01:49 | 34.07495 | -116.57170 | 30081 ft | 361 kts | 261° |
| 2026-05-04 01:49 | 34.07191 | -116.60153 | 29595 ft | 357 kts | 262° |
| 2026-05-04 01:50 | 34.06906 | -116.63128 | 28917 ft | 357 kts | 262° |
| 2026-05-04 01:50 | 34.06631 | -116.66081 | 28217 ft | 352 kts | 262° |
| 2026-05-04 01:50 | 34.06360 | -116.69013 | 27561 ft | 351 kts | 262° |
| 2026-05-04 01:50 | 34.06091 | -116.71923 | 26918 ft | 348 kts | 262° |
| 2026-05-04 01:51 | 34.05822 | -116.74823 | 26270 ft | 347 kts | 262° |
| 2026-05-04 01:51 | 34.05552 | -116.77709 | 25670 ft | 347 kts | 262° |
| 2026-05-04 01:51 | 34.05288 | -116.80550 | 25047 ft | 344 kts | 262° |
| 2026-05-04 01:51 | 34.05021 | -116.83413 | 24433 ft | 342 kts | 262° |
| 2026-05-04 01:52 | 34.04754 | -116.86256 | 24010 ft | 341 kts | 262° |
| 2026-05-04 01:52 | 34.04462 | -116.89096 | 23907 ft | 341 kts | 260° |
| 2026-05-04 01:52 | 34.04118 | -116.91909 | 23886 ft | 339 kts | 260° |
| 2026-05-04 01:52 | 34.03756 | -116.94712 | 23884 ft | 338 kts | 259° |
| 2026-05-04 01:53 | 34.03390 | -116.97515 | 23888 ft | 338 kts | 259° |
| 2026-05-04 01:53 | 34.03023 | -117.00316 | 23909 ft | 338 kts | 259° |
| 2026-05-04 01:53 | 34.02663 | -117.03115 | 23910 ft | 338 kts | 260° |
| 2026-05-04 01:53 | 34.02320 | -117.05924 | 23728 ft | 340 kts | 260° |
| 2026-05-04 01:54 | 34.01984 | -117.08741 | 22952 ft | 337 kts | 260° |
| 2026-05-04 01:54 | 34.01654 | -117.11527 | 22243 ft | 334 kts | 260° |
| 2026-05-04 01:54 | 34.01329 | -117.14282 | 21578 ft | 331 kts | 260° |
| 2026-05-04 01:54 | 34.01006 | -117.17014 | 20929 ft | 328 kts | 260° |
| 2026-05-04 01:55 | 34.00686 | -117.19718 | 20347 ft | 325 kts | 259° |
| 2026-05-04 01:55 | 34.00367 | -117.22398 | 19716 ft | 322 kts | 259° |
| 2026-05-04 01:55 | 34.00048 | -117.25058 | 19080 ft | 320 kts | 259° |
| 2026-05-04 01:55 | 33.99731 | -117.27695 | 18444 ft | 317 kts | 259° |
| 2026-05-04 01:56 | 33.99416 | -117.30316 | 17740 ft | 315 kts | 259° |
| 2026-05-04 01:56 | 33.99107 | -117.32930 | 17089 ft | 314 kts | 259° |
| 2026-05-04 01:56 | 33.98801 | -117.35539 | 16460 ft | 315 kts | 259° |
| 2026-05-04 01:56 | 33.98494 | -117.38159 | 15840 ft | 316 kts | 259° |
| 2026-05-04 01:57 | 33.98186 | -117.40786 | 15238 ft | 317 kts | 259° |
| 2026-05-04 01:57 | 33.97877 | -117.43422 | 14609 ft | 318 kts | 259° |
| 2026-05-04 01:57 | 33.97570 | -117.46047 | 14115 ft | 317 kts | 259° |
| 2026-05-04 01:57 | 33.97397 | -117.48665 | 13930 ft | 313 kts | 269° |
| 2026-05-04 01:58 | 33.97655 | -117.51285 | 13929 ft | 317 kts | 275° |
| 2026-05-04 01:58 | 33.98075 | -117.53892 | 13954 ft | 318 kts | 277° |
| 2026-05-04 01:58 | 33.98539 | -117.56496 | 13954 ft | 318 kts | 278° |
| 2026-05-04 01:58 | 33.99009 | -117.59097 | 13954 ft | 318 kts | 278° |
| 2026-05-04 01:59 | 33.99478 | -117.61703 | 13954 ft | 318 kts | 277° |
| 2026-05-04 01:59 | 33.99943 | -117.64305 | 13954 ft | 318 kts | 277° |
| 2026-05-04 01:59 | 34.00395 | -117.66910 | 13954 ft | 316 kts | 275° |
| 2026-05-04 01:59 | 34.00512 | -117.69526 | 13951 ft | 312 kts | 264° |
| 2026-05-04 02:00 | 34.00349 | -117.72246 | 13336 ft | 314 kts | 261° |
| 2026-05-04 02:00 | 34.00114 | -117.74698 | 12967 ft | 308 kts | 259° |
| 2026-05-04 02:00 | 33.99847 | -117.77268 | 12309 ft | 311 kts | 260° |
| 2026-05-04 02:00 | 33.99575 | -117.79861 | 11600 ft | 312 kts | 260° |
| 2026-05-04 02:01 | 33.99309 | -117.82451 | 10969 ft | 311 kts | 260° |
| 2026-05-04 02:01 | 33.99055 | -117.85004 | 10642 ft | 300 kts | 260° |
| 2026-05-04 02:01 | 33.98816 | -117.87441 | 10416 ft | 288 kts | 260° |
| 2026-05-04 02:01 | 33.98581 | -117.89828 | 9874 ft | 287 kts | 260° |
| 2026-05-04 02:02 | 33.98349 | -117.92177 | 9271 ft | 277 kts | 261° |
| 2026-05-04 02:02 | 33.98127 | -117.94429 | 8707 ft | 264 kts | 260° |
| 2026-05-04 02:02 | 33.97917 | -117.96572 | 8192 ft | 251 kts | 261° |
| 2026-05-04 02:02 | 33.97724 | -117.98620 | 7689 ft | 241 kts | 261° |
| 2026-05-04 02:03 | 33.97543 | -118.00595 | 7209 ft | 235 kts | 261° |
| 2026-05-04 02:03 | 33.97356 | -118.02555 | 6732 ft | 236 kts | 261° |
| 2026-05-04 02:03 | 33.97165 | -118.04519 | 6220 ft | 237 kts | 261° |
| 2026-05-04 02:03 | 33.96970 | -118.06496 | 5654 ft | 238 kts | 261° |
| 2026-05-04 02:04 | 33.96775 | -118.08446 | 5118 ft | 229 kts | 262° |
| 2026-05-04 02:04 | 33.96588 | -118.10318 | 4720 ft | 222 kts | 262° |
| 2026-05-04 02:04 | 33.96403 | -118.12154 | 4389 ft | 220 kts | 262° |
| 2026-05-04 02:04 | 33.96219 | -118.13973 | 4094 ft | 218 kts | 262° |
| 2026-05-04 02:05 | 33.96035 | -118.15780 | 3797 ft | 217 kts | 261° |
| 2026-05-04 02:05 | 33.95853 | -118.17572 | 3512 ft | 214 kts | 262° |
| 2026-05-04 02:05 | 33.95671 | -118.19353 | 3231 ft | 213 kts | 261° |
| 2026-05-04 02:05 | 33.95495 | -118.21082 | 2929 ft | 202 kts | 262° |
| 2026-05-04 02:06 | 33.95328 | -118.22721 | 2661 ft | 192 kts | 261° |
| 2026-05-04 02:06 | 33.95175 | -118.24231 | 2399 ft | 172 kts | 261° |
| 2026-05-04 02:06 | 33.95031 | -118.25628 | 2182 ft | 167 kts | 261° |
| 2026-05-04 02:06 | 33.94892 | -118.26984 | 1967 ft | 162 kts | 261° |
| 2026-05-04 02:07 | 33.94755 | -118.28317 | 1777 ft | 154 kts | 261° |
| 2026-05-04 02:07 | 33.94632 | -118.29526 | 1531 ft | 142 kts | 261° |
| 2026-05-04 02:07 | 33.94513 | -118.30684 | 1369 ft | 137 kts | 261° |
| 2026-05-04 02:07 | 33.94396 | -118.31827 | 1167 ft | 135 kts | 261° |
| 2026-05-04 02:08 | 33.94275 | -118.32931 | 1052 ft | 135 kts | 263° |
| 2026-05-04 02:08 | 33.94167 | -118.34069 | 866 ft | 138 kts | 264° |
| 2026-05-04 02:08 | 33.94057 | -118.35210 | 682 ft | 138 kts | 263° |
| 2026-05-04 02:08 | 33.93938 | -118.36361 | 465 ft | 139 kts | 264° |
| 2026-05-04 02:09 | 33.93819 | -118.37515 | 275 ft | 137 kts | 262° |
| 2026-05-04 02:09 | 33.93704 | -118.38620 | 118 ft | 129 kts | 262° |
| 2026-05-04 02:09 | 33.93609 | -118.39531 | 105 ft | 83 kts | 263° |
| 2026-05-04 02:09 | 33.93563 | -118.39997 | 105 ft | 39 kts | 267° |
| 2026-05-04 02:10 | 33.93583 | -118.40228 | 102 ft | 17 kts | 285° |
| 2026-05-04 02:10 | 33.93610 | -118.40314 | 103 ft | 7 kts | 290° |
| 2026-05-04 02:10 | 33.93622 | -118.40376 | 105 ft | 11 kts | 279° |
| 2026-05-04 02:10 | 33.93623 | -118.40445 | 102 ft | 12 kts | 266° |
| 2026-05-04 02:11 | 33.93609 | -118.40577 | 105 ft | 12 kts | 263° |
| 2026-05-04 02:11 | 33.93601 | -118.40677 | 101 ft | 12 kts | 266° |
| 2026-05-04 02:11 | 33.93594 | -118.40776 | 104 ft | 12 kts | 270° |
| 2026-05-04 02:11 | 33.93617 | -118.40861 | 104 ft | 10 kts | 306° |
| 2026-05-04 02:12 | 33.93664 | -118.40895 | 103 ft | 7 kts | 344° |
| 2026-05-04 02:12 | 33.93715 | -118.40903 | 103 ft | 7 kts | 353° |
| 2026-05-04 02:12 | 33.93769 | -118.40912 | 102 ft | 8 kts | 353° |
| 2026-05-04 02:12 | 33.93828 | -118.40920 | 101 ft | 8 kts | 356° |
| 2026-05-04 02:13 | 33.93867 | -118.40901 | 100 ft | 4 kts | 49° |
| 2026-05-04 02:13 | 33.93874 | -118.40863 | 100 ft | 7 kts | 81° |
| 2026-05-04 02:13 | 33.93895 | -118.40817 | 103 ft | 5 kts | 32° |
| 2026-05-04 02:13 | 33.93922 | -118.40813 | 102 ft | 5 kts | 1° |
| 2026-05-04 02:14 | 33.93979 | -118.40819 | 102 ft | 9 kts | 353° |
| 2026-05-04 02:14 | 33.94043 | -118.40828 | 103 ft | 9 kts | 355° |
| 2026-05-04 02:14 | 33.94084 | -118.40803 | 100 ft | 5 kts | 47° |
| 2026-05-04 02:14 | 33.94097 | -118.40771 | 102 ft | 2 kts | 69° |
| 2026-05-04 02:15 | 33.94101 | -118.40756 | 100 ft | 2 kts | 69° |
| 2026-05-04 02:15 | 33.94104 | -118.40749 | 102 ft | 0 kts | 69° |